Learmouth Airport
YPLM : now visible

Airfield :











YOU CAN JOIN US ON...

 
LOGIN :

Register | Disclaimer

   EN    FR    IT 

 









Legend :    VFR   Marginal VFR   IFR   Intensive IFR   Very Intensive IFR
Visi :
Ceiling :
>= 8 km
>= 3000ft
5 to 8 km
1000 to 3000 ft
1500m to 5 km
500 to 1000 ft
800 to 1500m
200 to 500 ft
< 800m
< 200 ft
Symbols :   Thunderstorms  Fog  Heavy snow  Heavy precipitations  Wind > 20 kt






- Airport Elevation : 19 ft
- IATA code : LEA


YPLM - Learmouth

CURRENT METAR :
  • 250000Z AUTO 19008KT 9999 // NCD 13/06 Q1019 RF00.0/000.0

EXPIRED METARs :
  • 242330Z AUTO 21008KT 9999 // NCD 10/06 Q1019 RF00.0/000.0
  • 242300Z AUTO 22007KT 9999 // NCD 09/05 Q1018 RF00.0/000.0
  • 242230Z AUTO 22005KT 9999 // NCD 09/05 Q1018 RF00.0/000.0
  • 242200Z AUTO 20007KT 9999 // NCD 10/05 Q1018 RF00.0/000.0
  • 242130Z AUTO 20010KT 9999 // NCD 11/06 Q1018 RF00.0/000.0
  • 242100Z AUTO 21009KT 9999 // NCD 11/06 Q1017 RF00.0/000.0
  • 242030Z AUTO 17011KT 9999 // NCD 13/06 Q1017 RF00.0/000.0
  • 242000Z AUTO 17013KT 9999 // NCD 14/06 Q1017 RF00.0/000.0
  • 241930Z AUTO 17013KT 9999 // NCD 14/07 Q1017 RF00.0/000.0

TAF TAF YPLM
Valid from the 25 at 00:00 until the 26 at 00:00 UTC


242303Z 2500/2600 19013KT CAVOK
FM250100 15016G26KT CAVOK
FM250400 15014KT CAVOK
FM251000 20012KT CAVOK
YMMM FIR / Oceania



MET'MAP, your aeronautical weather chart ! - Copyright ORBIFLY December 2007 - Disclaimer

ORBIFLY MET'MAP TEAM :

Programming & Development : Alexandra Zaïnal
Original concept : Baudouin d'Aumeries
Technical & hardware support : Manuel Goepfert
Assistance : Marc-Olivier Méhu




SOURCES & CREDITS :

   NOAA       Earth
Advisory